createdAt,value
2023-08-15T00:01:45.942Z,3.80
2023-08-15T00:04:14.029Z,3.30
2023-08-15T00:06:42.257Z,3.10
2023-08-15T00:09:10.389Z,3.93
2023-08-15T00:11:39.814Z,3.47
2023-08-15T00:14:16.730Z,3.20
2023-08-15T00:16:44.887Z,3.40
2023-08-15T00:19:13.004Z,3.47
2023-08-15T00:21:43.488Z,3.70
2023-08-15T00:24:14.220Z,4.07
2023-08-15T00:26:59.037Z,3.70
2023-08-15T00:29:27.189Z,3.30
2023-08-15T00:31:55.292Z,4.53
2023-08-15T00:34:23.508Z,3.37
2023-08-15T00:36:51.577Z,4.10
2023-08-15T00:39:20.452Z,3.57
2023-08-15T00:41:51.720Z,4.07
2023-08-15T00:44:21.295Z,4.00
2023-08-15T00:46:50.040Z,3.80
2023-08-15T00:49:22.031Z,4.30
2023-08-15T00:51:51.276Z,4.30
2023-08-15T00:54:20.095Z,3.67
2023-08-15T00:56:48.345Z,3.57
2023-08-15T00:59:16.965Z,3.67
2023-08-15T01:01:46.830Z,3.67
2023-08-15T01:04:16.782Z,3.40
2023-08-15T01:06:44.914Z,3.47
2023-08-15T01:09:15.480Z,3.37
2023-08-15T01:11:51.976Z,3.53
2023-08-15T01:14:21.770Z,3.77
2023-08-15T01:16:53.335Z,3.70
2023-08-15T01:19:30.884Z,4.30
2023-08-15T01:22:03.557Z,3.57
2023-08-15T01:24:39.827Z,3.57
2023-08-15T01:27:07.916Z,4.13
2023-08-15T01:29:36.074Z,3.37
2023-08-15T01:32:11.558Z,3.77
2023-08-15T01:34:50.825Z,4.63
2023-08-15T01:37:22.932Z,3.73
2023-08-15T01:39:55.839Z,3.80
2023-08-15T01:42:28.785Z,4.00
2023-08-15T01:45:03.427Z,3.53
2023-08-15T01:47:35.394Z,3.80
2023-08-15T01:50:03.559Z,4.17
2023-08-15T01:52:31.755Z,4.50
2023-08-15T01:55:05.977Z,3.47
2023-08-15T01:57:34.173Z,4.70
2023-08-15T02:00:04.419Z,3.77
2023-08-15T02:02:44.091Z,3.93
2023-08-15T02:05:14.433Z,3.60
2023-08-15T02:07:42.893Z,4.07
2023-08-15T02:10:15.450Z,4.10
2023-08-15T02:12:43.570Z,3.90
2023-08-15T02:15:13.243Z,3.60
2023-08-15T02:17:42.400Z,3.77
2023-08-15T02:20:18.558Z,3.93
2023-08-15T02:22:46.752Z,3.47
2023-08-15T02:25:23.923Z,3.23
2023-08-15T02:27:53.902Z,3.37
2023-08-15T02:30:26.381Z,3.37
2023-08-15T02:32:54.541Z,3.40
2023-08-15T02:35:22.922Z,3.80
2023-08-15T02:37:51.005Z,3.60
2023-08-15T02:40:20.597Z,3.73
2023-08-15T02:42:48.651Z,4.07
2023-08-15T02:45:16.799Z,3.53
2023-08-15T02:47:47.575Z,3.37
2023-08-15T02:50:16.218Z,3.43
2023-08-15T02:52:44.682Z,3.73
2023-08-15T02:55:12.769Z,3.50
2023-08-15T02:57:46.274Z,3.83
2023-08-15T03:00:15.209Z,3.60
2023-08-15T03:02:43.462Z,3.10
2023-08-15T03:05:11.639Z,3.47
2023-08-15T03:07:41.972Z,3.40
2023-08-15T03:10:10.512Z,3.60
2023-08-15T03:12:39.107Z,3.10
2023-08-15T03:15:09.566Z,3.80
2023-08-15T03:17:38.979Z,3.63
2023-08-15T03:20:10.374Z,3.80
2023-08-15T03:22:38.504Z,3.30
2023-08-15T03:25:09.676Z,2.90
2023-08-15T03:27:37.802Z,3.20
2023-08-15T03:30:11.292Z,3.70
2023-08-15T03:32:39.660Z,3.87
2023-08-15T03:35:08.934Z,4.17
2023-08-15T03:37:38.891Z,4.10
2023-08-15T03:40:08.896Z,3.50
2023-08-15T03:42:36.971Z,3.47
2023-08-15T03:45:12.100Z,3.67
2023-08-15T03:47:40.920Z,3.43
2023-08-15T03:50:09.690Z,3.50
2023-08-15T03:52:37.746Z,3.70
2023-08-15T03:55:06.758Z,4.20
2023-08-15T03:57:36.209Z,4.47
2023-08-15T04:00:06.316Z,4.40
2023-08-15T04:02:45.230Z,5.00
2023-08-15T04:05:14.278Z,3.70
2023-08-15T04:07:42.863Z,4.97
2023-08-15T04:10:13.075Z,4.43
2023-08-15T04:12:41.240Z,4.37
2023-08-15T04:15:09.903Z,4.70
2023-08-15T04:17:38.002Z,4.90
2023-08-15T04:20:24.826Z,4.20
2023-08-15T04:22:52.887Z,6.03
2023-08-15T04:25:24.136Z,4.07
2023-08-15T04:27:52.380Z,4.47
2023-08-15T04:30:21.838Z,4.97
2023-08-15T04:32:53.026Z,4.90
2023-08-15T04:35:25.002Z,4.53
2023-08-15T04:37:53.800Z,5.60
2023-08-15T04:40:32.355Z,4.80
2023-08-15T04:43:01.777Z,4.30
2023-08-15T04:45:41.580Z,3.93
2023-08-15T04:48:12.958Z,5.27
2023-08-15T04:50:45.065Z,4.27
2023-08-15T04:53:13.586Z,4.23
2023-08-15T04:55:44.617Z,5.50
2023-08-15T04:58:15.994Z,5.10
2023-08-15T05:00:44.950Z,5.10
2023-08-15T05:03:13.098Z,5.40
2023-08-15T05:05:42.644Z,5.10
2023-08-15T05:08:10.946Z,5.97
2023-08-15T05:10:39.982Z,4.43
2023-08-15T05:13:08.109Z,4.47
2023-08-15T05:15:36.316Z,5.47
2023-08-15T05:18:04.812Z,6.07
2023-08-15T05:20:35.519Z,5.50
2023-08-15T05:23:07.120Z,5.40
2023-08-15T05:25:36.726Z,4.83
2023-08-15T05:28:06.666Z,5.47
2023-08-15T05:30:37.147Z,5.00
2023-08-15T05:33:08.961Z,5.30
2023-08-15T05:35:37.464Z,5.07
2023-08-15T05:38:06.978Z,5.77
2023-08-15T05:40:37.496Z,4.70
2023-08-15T05:43:09.611Z,5.23
2023-08-15T05:45:37.931Z,5.23
2023-08-15T05:48:12.389Z,6.33
2023-08-15T05:50:40.970Z,5.97
2023-08-15T05:53:21.746Z,5.27
2023-08-15T05:55:52.789Z,5.30
2023-08-15T05:58:23.004Z,5.33
2023-08-15T06:00:51.113Z,5.70
2023-08-15T06:03:35.911Z,6.70
2023-08-15T06:06:09.456Z,5.03
2023-08-15T06:08:41.372Z,5.07
2023-08-15T06:11:11.564Z,4.97
2023-08-15T06:13:40.132Z,5.80
2023-08-15T06:16:08.358Z,5.53
2023-08-15T06:18:36.730Z,4.97
2023-08-15T06:21:05.082Z,5.00
2023-08-15T06:23:40.869Z,4.73
2023-08-15T06:26:09.082Z,5.20
2023-08-15T06:28:39.028Z,5.30
2023-08-15T06:31:07.929Z,4.40
2023-08-15T06:33:36.101Z,4.00
2023-08-15T06:36:04.459Z,4.23
2023-08-15T06:38:32.806Z,5.20
2023-08-15T06:41:03.773Z,4.93
2023-08-15T06:43:31.911Z,4.10
2023-08-15T06:46:02.210Z,5.07
2023-08-15T06:48:30.281Z,4.10
2023-08-15T06:50:58.509Z,4.00
2023-08-15T06:53:29.442Z,4.00
2023-08-15T06:56:06.828Z,3.27
2023-08-15T06:58:40.405Z,4.03
2023-08-15T07:01:08.575Z,4.47
2023-08-15T07:03:36.772Z,4.13
2023-08-15T07:06:05.245Z,5.90
2023-08-15T07:08:34.365Z,5.03
2023-08-15T07:11:07.851Z,5.03
2023-08-15T07:13:37.322Z,5.30
2023-08-15T07:16:06.698Z,5.07
2023-08-15T07:18:34.843Z,5.00
2023-08-15T07:21:05.796Z,5.10
2023-08-15T07:23:33.955Z,6.60
2023-08-15T07:26:09.656Z,7.37
2023-08-15T07:28:39.205Z,5.50
2023-08-15T07:31:10.197Z,6.20
2023-08-15T07:33:39.262Z,5.30
2023-08-15T07:36:10.596Z,6.10
2023-08-15T07:38:39.001Z,6.23
2023-08-15T07:41:09.445Z,5.83
2023-08-15T07:43:43.670Z,5.30
2023-08-15T07:46:12.997Z,5.13
2023-08-15T07:48:41.095Z,6.03
2023-08-15T07:51:09.283Z,5.87
2023-08-15T07:53:39.830Z,5.50
2023-08-15T07:56:08.778Z,5.93
2023-08-15T07:58:40.721Z,5.80
2023-08-15T08:01:09.156Z,6.50
2023-08-15T08:03:39.636Z,6.30
2023-08-15T08:06:12.356Z,6.50
2023-08-15T08:08:49.426Z,6.47
2023-08-15T08:11:17.461Z,7.30
2023-08-15T08:13:46.957Z,6.40
2023-08-15T08:16:15.081Z,8.40
2023-08-15T08:18:43.266Z,7.87
2023-08-15T08:21:12.336Z,8.27
2023-08-15T08:23:42.812Z,7.80
2023-08-15T08:26:18.892Z,7.40
2023-08-15T08:28:50.402Z,6.57
2023-08-15T08:31:21.838Z,7.37
2023-08-15T08:33:50.012Z,7.50
2023-08-15T08:36:18.134Z,6.47
2023-08-15T08:38:46.258Z,8.80
2023-08-15T08:43:59.876Z,7.43
2023-08-15T08:46:29.519Z,8.43
2023-08-15T08:49:06.117Z,7.77
2023-08-15T08:51:34.790Z,7.10
2023-08-15T08:54:03.150Z,8.03
2023-08-15T08:56:33.076Z,7.17
2023-08-15T08:59:07.730Z,6.10
2023-08-15T09:01:38.307Z,6.97
2023-08-15T09:04:07.522Z,6.60
2023-08-15T09:06:37.965Z,7.10
2023-08-15T09:09:07.644Z,5.30
2023-08-15T09:11:38.799Z,5.23
2023-08-15T09:14:08.944Z,5.30
2023-08-15T09:16:48.882Z,4.87
2023-08-15T09:19:17.697Z,5.00
2023-08-15T09:21:48.706Z,4.63
2023-08-15T09:24:16.913Z,5.30
2023-08-15T09:26:45.132Z,5.70
2023-08-15T09:29:14.739Z,5.47
2023-08-15T09:31:42.954Z,6.30
2023-08-15T09:34:11.742Z,5.17
2023-08-15T09:36:40.330Z,4.17
2023-08-15T09:39:10.163Z,4.40
2023-08-15T09:41:43.128Z,4.60
2023-08-15T09:44:11.777Z,4.87
2023-08-15T09:46:56.135Z,4.60
2023-08-15T09:49:24.447Z,4.60
2023-08-15T09:51:52.616Z,5.10
2023-08-15T09:54:23.008Z,3.60
2023-08-15T09:56:51.084Z,3.83
2023-08-15T09:59:47.222Z,3.43
2023-08-15T10:02:24.866Z,3.40
2023-08-15T10:05:01.313Z,3.27
2023-08-15T10:07:34.031Z,3.50
2023-08-15T10:10:04.654Z,3.60
2023-08-15T10:12:33.928Z,3.30
2023-08-15T10:15:04.779Z,2.57
2023-08-15T10:17:34.583Z,3.30
2023-08-15T10:20:07.460Z,3.63
2023-08-15T10:22:38.733Z,2.27
2023-08-15T10:25:38.183Z,2.80
2023-08-15T10:28:09.301Z,2.43
2023-08-15T10:30:43.334Z,3.13
2023-08-15T10:33:17.998Z,2.53
2023-08-15T10:36:07.423Z,3.10
2023-08-15T10:38:38.160Z,2.30
2023-08-15T10:41:10.171Z,3.27
2023-08-15T10:43:43.225Z,2.90
2023-08-15T10:46:12.783Z,3.17
2023-08-15T10:49:01.808Z,2.60
2023-08-15T10:51:33.850Z,2.70
2023-08-15T10:54:03.197Z,2.13
2023-08-15T10:56:33.283Z,3.00
2023-08-15T10:59:14.360Z,2.73
2023-08-15T11:01:46.517Z,2.40
2023-08-15T11:04:18.092Z,2.70
2023-08-15T11:06:48.583Z,3.10
2023-08-15T11:09:17.269Z,3.00
2023-08-15T11:11:45.976Z,3.07
2023-08-15T11:14:21.233Z,3.10
2023-08-15T11:16:50.462Z,2.40
2023-08-15T11:19:20.674Z,2.80
2023-08-15T11:21:57.168Z,2.63
2023-08-15T11:24:27.593Z,2.47
2023-08-15T11:26:56.309Z,2.80
2023-08-15T11:29:26.872Z,2.70
2023-08-15T11:31:55.960Z,2.50
2023-08-15T11:34:25.584Z,2.50
2023-08-15T11:36:56.827Z,2.87
2023-08-15T11:39:25.071Z,2.30
2023-08-15T11:41:54.339Z,2.77
2023-08-15T11:44:23.337Z,2.43
2023-08-15T11:46:55.050Z,2.73
2023-08-15T11:49:27.578Z,2.30
2023-08-15T11:52:04.853Z,2.60
2023-08-15T11:54:32.954Z,3.03
2023-08-15T11:57:01.073Z,2.50
2023-08-15T11:59:31.342Z,2.20
2023-08-15T12:01:59.361Z,2.27
2023-08-15T12:04:37.704Z,2.20
2023-08-15T12:07:05.778Z,2.50
2023-08-15T12:09:34.116Z,2.40
2023-08-15T12:12:06.269Z,2.23
2023-08-15T12:14:49.412Z,2.40
2023-08-15T12:17:21.213Z,2.27
2023-08-15T12:20:00.773Z,2.47
2023-08-15T12:22:32.476Z,2.70
2023-08-15T12:25:00.653Z,2.70
2023-08-15T12:27:28.941Z,2.90
2023-08-15T12:30:12.516Z,2.33
2023-08-15T12:32:43.459Z,2.53
2023-08-15T12:35:12.956Z,2.20
2023-08-15T12:37:43.598Z,2.37
2023-08-15T12:40:29.361Z,2.80
2023-08-15T12:42:59.657Z,2.90
2023-08-15T12:45:29.438Z,3.00
2023-08-15T12:47:57.616Z,2.70
2023-08-15T12:50:35.462Z,2.63
2023-08-15T12:53:03.646Z,2.07
2023-08-15T12:55:33.349Z,2.43
2023-08-15T12:58:03.938Z,2.40
2023-08-15T13:00:32.698Z,2.53
2023-08-15T13:03:04.058Z,2.30
2023-08-15T13:05:33.576Z,2.53
2023-08-15T13:08:01.712Z,2.80
2023-08-15T13:10:29.842Z,2.37
2023-08-15T13:13:00.357Z,2.20
2023-08-15T13:15:28.509Z,2.40
2023-08-15T13:17:57.448Z,2.70
2023-08-15T13:20:25.612Z,2.37
2023-08-15T13:22:57.780Z,2.80
2023-08-15T13:25:26.227Z,3.10
2023-08-15T13:27:56.561Z,2.20
2023-08-15T13:30:24.708Z,2.40
2023-08-15T13:32:55.018Z,1.90
2023-08-15T13:35:25.362Z,1.90
2023-08-15T13:37:54.757Z,2.50
2023-08-15T13:40:25.438Z,2.33
2023-08-15T13:42:53.522Z,2.63
2023-08-15T13:45:21.914Z,2.00
2023-08-15T13:47:52.293Z,2.37
2023-08-15T13:50:20.587Z,2.23
2023-08-15T13:52:48.951Z,1.83
2023-08-15T13:55:20.792Z,2.50
2023-08-15T13:57:49.077Z,2.97
2023-08-15T14:00:17.919Z,2.50
2023-08-15T14:02:48.435Z,2.50
2023-08-15T14:05:16.594Z,2.40
2023-08-15T14:07:45.946Z,2.27
2023-08-15T14:10:14.786Z,2.10
2023-08-15T14:12:44.200Z,2.00
2023-08-15T14:15:13.379Z,2.40
2023-08-15T14:17:41.470Z,2.57
2023-08-15T14:20:10.571Z,2.30
2023-08-15T14:22:38.608Z,2.53
2023-08-15T14:25:07.601Z,2.50
2023-08-15T14:27:43.636Z,2.10
2023-08-15T14:30:15.065Z,2.50
2023-08-15T14:32:45.679Z,2.20
2023-08-15T14:35:14.553Z,2.33
2023-08-15T14:37:45.041Z,2.00
2023-08-15T14:40:13.498Z,2.30
2023-08-15T14:42:41.888Z,2.17
2023-08-15T14:45:10.584Z,2.50
2023-08-15T14:47:42.669Z,2.30
2023-08-15T14:50:11.614Z,2.70
2023-08-15T14:52:45.563Z,2.40
2023-08-15T14:55:24.240Z,2.70
2023-08-15T14:57:52.374Z,1.77
2023-08-15T15:00:20.825Z,2.27
2023-08-15T15:02:52.644Z,2.80
2023-08-15T15:05:23.582Z,2.40
2023-08-15T15:07:51.891Z,2.00
2023-08-15T15:10:20.314Z,2.33
2023-08-15T15:12:51.175Z,2.50
2023-08-15T15:15:21.952Z,2.30
2023-08-15T15:17:54.702Z,2.50
2023-08-15T15:20:22.859Z,2.30
2023-08-15T15:22:51.061Z,2.57
2023-08-15T15:25:24.485Z,2.17
2023-08-15T15:27:58.345Z,2.80
2023-08-15T15:30:26.858Z,2.20
2023-08-15T15:32:56.373Z,2.77
2023-08-15T15:35:24.636Z,2.33
2023-08-15T15:37:52.909Z,2.60
2023-08-15T15:40:21.067Z,3.23
2023-08-15T15:42:49.157Z,2.37
2023-08-15T15:45:17.604Z,2.00
2023-08-15T15:47:48.330Z,2.40
2023-08-15T15:50:22.891Z,2.87
2023-08-15T15:52:51.353Z,2.37
2023-08-15T15:55:25.274Z,2.40
2023-08-15T15:57:53.552Z,2.80
2023-08-15T16:00:22.339Z,3.20
2023-08-15T16:02:50.425Z,2.80
2023-08-15T16:05:21.102Z,3.00
2023-08-15T16:07:49.232Z,2.33
2023-08-15T16:10:17.527Z,2.80
2023-08-15T16:12:49.792Z,3.27
2023-08-15T16:15:20.868Z,2.67
2023-08-15T16:17:51.825Z,2.57
2023-08-15T16:20:23.662Z,2.70
2023-08-15T16:22:59.025Z,2.70
2023-08-15T16:25:29.366Z,2.13
2023-08-15T16:27:58.185Z,3.20
2023-08-15T16:30:27.246Z,3.13
2023-08-15T16:32:58.428Z,2.70
2023-08-15T16:35:27.905Z,3.63
2023-08-15T16:37:58.473Z,3.30
2023-08-15T16:40:29.792Z,2.87
2023-08-15T16:43:12.134Z,2.70
2023-08-15T16:45:43.626Z,3.03
2023-08-15T16:48:14.415Z,2.93
2023-08-15T16:50:46.380Z,3.10
2023-08-15T16:53:14.412Z,2.30
2023-08-15T16:55:43.710Z,3.17
2023-08-15T16:58:15.343Z,2.87
2023-08-15T17:00:43.424Z,3.50
2023-08-15T17:03:11.699Z,3.13
2023-08-15T17:05:40.054Z,3.27
2023-08-15T17:08:09.538Z,2.87
2023-08-15T17:10:37.675Z,3.00
2023-08-15T17:13:06.124Z,3.43
2023-08-15T17:15:37.051Z,3.17
2023-08-15T17:18:08.089Z,2.90
2023-08-15T17:20:36.238Z,3.20
2023-08-15T17:23:04.475Z,3.20
2023-08-15T17:25:39.927Z,2.97
2023-08-15T17:28:08.232Z,3.20
2023-08-15T17:30:36.660Z,3.40
2023-08-15T17:33:06.281Z,3.53
2023-08-15T17:35:34.707Z,3.53
2023-08-15T17:38:02.740Z,3.77
2023-08-15T17:40:30.842Z,4.13
2023-08-15T17:43:00.316Z,3.63
2023-08-15T17:45:28.941Z,3.37
2023-08-15T17:47:57.246Z,4.53
2023-08-15T17:50:26.033Z,3.40
2023-08-15T17:52:54.548Z,3.67
2023-08-15T17:55:22.585Z,3.30
2023-08-15T17:57:51.157Z,3.60
2023-08-15T18:00:26.694Z,4.60
2023-08-15T18:02:54.789Z,3.50
2023-08-15T18:05:23.119Z,3.80
2023-08-15T18:07:51.256Z,3.87
2023-08-15T18:10:20.417Z,4.40
2023-08-15T18:12:48.545Z,3.90
2023-08-15T18:15:18.064Z,3.10
2023-08-15T18:17:49.658Z,3.60
2023-08-15T18:20:20.545Z,3.10
2023-08-15T18:22:48.638Z,3.60
2023-08-15T18:25:26.174Z,3.97
2023-08-15T18:27:56.629Z,4.27
2023-08-15T18:30:25.181Z,4.30
2023-08-15T18:32:57.028Z,4.53
2023-08-15T18:35:25.301Z,4.47
2023-08-15T18:37:53.382Z,4.20
2023-08-15T18:40:21.576Z,4.27
2023-08-15T18:42:56.872Z,3.60
2023-08-15T18:45:25.456Z,4.03
2023-08-15T18:47:57.746Z,4.37
2023-08-15T18:50:26.794Z,3.40
2023-08-15T18:52:54.968Z,4.43
2023-08-15T18:55:27.960Z,4.47
2023-08-15T18:57:56.104Z,4.07
2023-08-15T19:00:24.601Z,3.07
2023-08-15T19:02:59.178Z,4.93
2023-08-15T19:05:28.260Z,4.27
2023-08-15T19:07:56.500Z,4.57
2023-08-15T19:10:25.108Z,3.90
2023-08-15T19:12:56.778Z,4.10
2023-08-15T19:15:24.882Z,4.00
2023-08-15T19:17:54.407Z,3.70
2023-08-15T19:20:30.231Z,4.60
2023-08-15T19:22:58.293Z,3.90
2023-08-15T19:25:26.886Z,4.10
2023-08-15T19:27:55.014Z,3.53
2023-08-15T19:30:23.734Z,4.07
2023-08-15T19:32:54.148Z,4.00
2023-08-15T19:35:23.078Z,3.27
2023-08-15T19:37:53.298Z,4.43
2023-08-15T19:40:21.531Z,4.07
2023-08-15T19:42:49.708Z,3.93
2023-08-15T19:45:20.171Z,3.10
2023-08-15T19:47:48.749Z,3.43
2023-08-15T19:50:20.634Z,4.63
2023-08-15T19:52:48.682Z,4.17
2023-08-15T19:55:19.805Z,3.57
2023-08-15T19:57:47.913Z,3.77
2023-08-15T20:00:16.298Z,4.13
2023-08-15T20:02:47.191Z,4.20
2023-08-15T20:05:18.745Z,4.40
2023-08-15T20:07:48.295Z,4.20
2023-08-15T20:10:17.812Z,3.60
2023-08-15T20:12:46.196Z,4.00
2023-08-15T20:15:16.780Z,4.97
2023-08-15T20:17:45.007Z,4.10
2023-08-15T20:20:14.723Z,4.30
2023-08-15T20:22:42.884Z,3.83
2023-08-15T20:25:13.293Z,3.87
2023-08-15T20:27:41.323Z,4.50
2023-08-15T20:30:10.701Z,4.50
2023-08-15T20:32:41.304Z,4.40
2023-08-15T20:35:11.125Z,3.73
2023-08-15T20:37:39.384Z,4.13
2023-08-15T20:40:12.267Z,4.60
2023-08-15T20:42:41.730Z,4.30
2023-08-15T20:45:13.011Z,3.97
2023-08-15T20:47:41.797Z,3.80
2023-08-15T20:50:10.390Z,3.63
2023-08-15T20:52:38.770Z,4.40
2023-08-15T20:55:08.852Z,3.80
2023-08-15T20:57:37.002Z,4.50
2023-08-15T21:00:08.459Z,4.60
2023-08-15T21:02:38.834Z,4.00
2023-08-15T21:05:08.606Z,4.43
2023-08-15T21:07:37.045Z,3.90
2023-08-15T21:10:06.673Z,4.23
2023-08-15T21:12:34.875Z,4.77
2023-08-15T21:15:03.297Z,4.60
2023-08-15T21:17:33.269Z,4.73
2023-08-15T21:20:01.489Z,4.80
2023-08-15T21:22:39.050Z,3.87
2023-08-15T21:25:10.523Z,4.33
2023-08-15T21:27:38.665Z,4.60
2023-08-15T21:30:10.327Z,5.13
2023-08-15T21:32:39.764Z,4.70
2023-08-15T21:35:10.914Z,4.70
2023-08-15T21:37:38.979Z,4.10
2023-08-15T21:40:08.510Z,5.00
2023-08-15T21:42:38.698Z,4.73
2023-08-15T21:45:07.959Z,4.30
2023-08-15T21:47:39.350Z,4.90
2023-08-15T21:50:12.226Z,4.63
2023-08-15T21:52:40.292Z,5.77
2023-08-15T21:55:09.334Z,4.87
2023-08-15T21:57:39.974Z,4.57
2023-08-15T22:00:11.502Z,5.80
2023-08-15T22:02:51.869Z,5.37
2023-08-15T22:05:29.247Z,5.00
2023-08-15T22:07:57.752Z,5.50
2023-08-15T22:10:25.813Z,4.90
2023-08-15T22:12:53.881Z,4.70
2023-08-15T22:15:22.034Z,4.67
2023-08-15T22:17:57.165Z,5.60
2023-08-15T22:20:31.157Z,5.67
2023-08-15T22:22:59.189Z,6.17
2023-08-15T22:25:27.291Z,5.30
2023-08-15T22:27:55.542Z,6.90
2023-08-15T22:30:25.966Z,6.70
2023-08-15T22:32:56.490Z,5.30
2023-08-15T22:35:40.582Z,6.20
2023-08-15T22:38:11.380Z,6.50
2023-08-15T22:40:39.535Z,7.10
2023-08-15T22:43:07.950Z,6.70
2023-08-15T22:45:37.798Z,6.60
2023-08-15T22:48:08.516Z,7.50
2023-08-15T22:50:38.016Z,7.50
2023-08-15T22:53:06.560Z,6.77
2023-08-15T22:55:34.976Z,6.97
2023-08-15T22:58:12.762Z,6.60
2023-08-15T23:00:41.118Z,6.80
2023-08-15T23:03:09.298Z,6.50
2023-08-15T23:05:38.835Z,6.10
2023-08-15T23:10:54.362Z,6.67
2023-08-15T23:13:22.618Z,6.30
2023-08-15T23:15:52.955Z,6.67
2023-08-15T23:18:21.395Z,7.20
2023-08-15T23:20:51.753Z,6.40
2023-08-15T23:23:19.927Z,6.40
2023-08-15T23:25:48.006Z,5.57
2023-08-15T23:28:19.231Z,6.77
2023-08-15T23:30:47.386Z,6.40
2023-08-15T23:33:15.925Z,6.17
2023-08-15T23:35:43.969Z,5.60
2023-08-15T23:38:21.854Z,6.43
2023-08-15T23:40:50.143Z,5.83
2023-08-15T23:46:00.357Z,5.50
2023-08-15T23:48:28.857Z,6.40
2023-08-15T23:50:59.362Z,5.30
2023-08-15T23:53:29.078Z,5.63
2023-08-15T23:55:57.325Z,6.40
2023-08-15T23:58:32.582Z,5.60
